Time;durP1;ratioP1;P1;durP2;ratioP2;P2;SDS_P1;SDS_P2;PMS_P1;PMS_P2;Temp;Humidity;BMP_temperature;BMP_pressure;BME280_temperature;BME280_humidity;BME280_pressure;Samples;Min_cycle;Max_cycle;Signal;HPM_P1;HPM_P2
2021/06/16 00:01:45;;;;;;;8.93;4.30;;;17.20;59.90;;;;;;6096430;23;20018;-74
2021/06/16 00:04:11;;;;;;;10.45;5.07;;;17.30;60.70;;;;;;6070968;23;20014;-73
2021/06/16 00:06:37;;;;;;;8.68;4.10;;;17.20;60.00;;;;;;6070873;23;20010;-73
2021/06/16 00:09:05;;;;;;;7.43;3.92;;;17.20;60.70;;;;;;6070964;23;20033;-73
2021/06/16 00:11:33;;;;;;;11.77;4.25;;;17.20;60.80;;;;;;6071073;23;20086;-70
2021/06/16 00:14:00;;;;;;;6.75;3.75;;;17.10;61.00;;;;;;6094889;23;20066;-74
2021/06/16 00:16:27;;;;;;;10.18;4.78;;;17.10;60.80;;;;;;6070863;23;20365;-74
2021/06/16 00:18:54;;;;;;;8.68;3.83;;;17.10;60.70;;;;;;6094850;23;20010;-70
2021/06/16 00:21:20;;;;;;;8.00;3.92;;;17.10;60.50;;;;;;6094920;23;20081;-71
2021/06/16 00:23:48;;;;;;;8.32;3.83;;;17.10;60.60;;;;;;6096358;23;20018;-70
2021/06/16 00:26:16;;;;;;;8.75;4.00;;;17.10;60.50;;;;;;6070986;23;20015;-73
2021/06/16 00:28:42;;;;;;;8.05;3.60;;;17.10;60.50;;;;;;6070834;23;20427;-71
2021/06/16 00:31:08;;;;;;;12.05;4.40;;;17.10;60.60;;;;;;6096251;23;20456;-73
2021/06/16 00:33:35;;;;;;;9.52;3.70;;;17.10;60.60;;;;;;6070828;23;20014;-70
2021/06/16 00:36:01;;;;;;;8.98;4.00;;;17.00;60.50;;;;;;6070692;23;20054;-71
2021/06/16 00:38:28;;;;;;;8.23;3.83;;;17.00;59.90;;;;;;6070819;23;20011;-71
2021/06/16 00:40:57;;;;;;;7.07;3.50;;;17.00;60.00;;;;;;6096825;23;20018;-70
2021/06/16 00:43:23;;;;;;;9.15;4.55;;;17.00;60.80;;;;;;6096435;23;20030;-70
2021/06/16 00:45:50;;;;;;;10.18;4.70;;;17.00;60.80;;;;;;6095042;23;20018;-71
2021/06/16 00:48:16;;;;;;;8.75;4.07;;;17.00;60.90;;;;;;6071061;23;20013;-70
2021/06/16 00:50:44;;;;;;;9.27;4.25;;;16.90;61.00;;;;;;6046903;23;20033;-73
2021/06/16 00:53:11;;;;;;;10.15;4.45;;;16.90;61.00;;;;;;6096417;23;20007;-70
2021/06/16 00:55:38;;;;;;;7.57;4.13;;;16.80;60.80;;;;;;6070556;23;20022;-70
2021/06/16 00:58:09;;;;;;;8.68;4.00;;;16.80;61.40;;;;;;6070774;23;20023;-71
2021/06/16 01:00:43;;;;;;;9.18;3.40;;;16.80;61.50;;;;;;6094980;23;20026;-70
2021/06/16 01:03:46;;;;;;;7.57;3.63;;;16.70;61.40;;;;;;6071010;23;20436;-70
2021/06/16 01:06:15;;;;;;;7.95;4.03;;;16.70;61.50;;;;;;6070933;23;20033;-74
2021/06/16 01:09:20;;;;;;;7.93;3.42;;;16.60;61.40;;;;;;6070826;23;20007;-74
2021/06/16 01:12:26;;;;;;;9.05;4.30;;;16.60;61.20;;;;;;6072568;23;20026;-73
2021/06/16 01:15:08;;;;;;;10.15;3.95;;;16.50;61.50;;;;;;6072348;23;20459;-70
2021/06/16 01:17:58;;;;;;;11.38;3.83;;;16.50;61.70;;;;;;6096558;23;20011;-74
2021/06/16 01:20:49;;;;;;;11.07;3.65;;;16.50;61.70;;;;;;6096534;23;20044;-70
2021/06/16 01:24:11;;;;;;;8.52;3.75;;;16.40;61.70;;;;;;6096536;23;20010;-71
2021/06/16 01:26:40;;;;;;;9.95;3.72;;;16.40;61.60;;;;;;6097875;23;20018;-71
2021/06/16 01:29:15;;;;;;;7.47;3.67;;;16.30;62.10;;;;;;6096183;23;20010;-73
2021/06/16 01:31:43;;;;;;;8.43;4.00;;;16.30;62.30;;;;;;6072318;23;20018;-70
2021/06/16 01:34:11;;;;;;;9.20;4.15;;;16.30;62.30;;;;;;6096323;23;20033;-70
2021/06/16 01:36:44;;;;;;;8.18;4.03;;;16.30;62.40;;;;;;6096265;23;20006;-70
2021/06/16 01:39:11;;;;;;;8.63;4.20;;;16.30;62.40;;;;;;6097634;23;20011;-70
2021/06/16 01:41:39;;;;;;;10.10;3.95;;;16.30;62.40;;;;;;6072639;23;20344;-71
2021/06/16 01:44:07;;;;;;;8.63;4.03;;;16.30;62.50;;;;;;6072117;23;20014;-73
2021/06/16 01:46:34;;;;;;;9.52;4.60;;;16.30;62.70;;;;;;6096023;23;20038;-71
2021/06/16 01:49:00;;;;;;;11.98;4.82;;;16.30;62.60;;;;;;6071973;23;20030;-73
2021/06/16 01:51:28;;;;;;;8.55;3.80;;;16.30;62.80;;;;;;6096176;23;20018;-71
2021/06/16 01:53:58;;;;;;;10.52;4.13;;;16.20;62.80;;;;;;6096029;23;20013;-73
2021/06/16 01:56:29;;;;;;;7.20;3.30;;;16.20;62.80;;;;;;6072170;23;20007;-70
2021/06/16 01:58:56;;;;;;;7.40;3.97;;;16.10;62.80;;;;;;6095789;23;20025;-73
2021/06/16 02:01:24;;;;;;;8.63;3.90;;;16.20;63.00;;;;;;6072065;23;20087;-70
2021/06/16 02:03:53;;;;;;;7.78;4.28;;;16.10;63.10;;;;;;6095978;23;20025;-70
2021/06/16 02:06:23;;;;;;;10.93;4.47;;;16.10;63.20;;;;;;6072273;23;20015;-70
2021/06/16 02:08:51;;;;;;;10.02;4.50;;;16.10;63.40;;;;;;6072032;23;20010;-73
2021/06/16 02:11:21;;;;;;;8.77;3.78;;;16.00;63.30;;;;;;6071980;23;20021;-70
2021/06/16 02:14:09;;;;;;;7.75;3.60;;;16.00;63.50;;;;;;6071841;23;20440;-74
2021/06/16 02:17:12;;;;;;;6.70;3.65;;;16.00;63.40;;;;;;6095826;23;20469;-70
2021/06/16 02:19:42;;;;;;;9.00;4.05;;;16.00;63.10;;;;;;6071743;23;20322;-74
2021/06/16 02:22:09;;;;;;;7.82;4.03;;;15.90;63.50;;;;;;6071484;23;20006;-74
2021/06/16 02:24:36;;;;;;;7.63;4.05;;;16.00;63.60;;;;;;6095637;23;20025;-73
2021/06/16 02:27:04;;;;;;;9.85;4.45;;;15.90;63.20;;;;;;6095701;23;20444;-70
2021/06/16 02:29:31;;;;;;;10.80;3.58;;;15.90;63.70;;;;;;6071239;23;20033;-70
2021/06/16 02:31:58;;;;;;;7.75;4.13;;;16.00;63.70;;;;;;6071733;23;20054;-70
2021/06/16 02:34:26;;;;;;;9.70;4.50;;;15.90;63.70;;;;;;6071643;23;20018;-75
2021/06/16 02:36:58;;;;;;;8.65;3.88;;;15.90;63.80;;;;;;6071667;23;20010;-70
2021/06/16 02:39:47;;;;;;;8.48;4.05;;;15.90;63.80;;;;;;6096995;23;20045;-74
2021/06/16 02:42:16;;;;;;;7.68;3.97;;;15.90;63.70;;;;;;6095771;23;20006;-73
2021/06/16 02:45:02;;;;;;;8.57;4.55;;;15.90;63.70;;;;;;6071566;23;20499;-73
2021/06/16 02:47:29;;;;;;;12.02;4.45;;;15.90;63.70;;;;;;6071559;23;20017;-70
2021/06/16 02:49:59;;;;;;;9.65;4.05;;;15.90;63.80;;;;;;6071660;23;20444;-70
2021/06/16 02:52:26;;;;;;;9.20;4.35;;;16.00;63.70;;;;;;6095978;23;20432;-74
2021/06/16 02:55:13;;;;;;;8.00;4.30;;;16.00;63.90;;;;;;6047611;23;20113;-71
2021/06/16 02:57:42;;;;;;;7.53;3.65;;;16.00;63.70;;;;;;6071698;23;20003;-71
2021/06/16 03:00:13;;;;;;;7.90;3.72;;;16.00;63.70;;;;;;6095444;23;20385;-73
2021/06/16 03:02:43;;;;;;;7.20;3.75;;;16.00;63.70;;;;;;6071471;23;20388;-73
2021/06/16 03:05:12;;;;;;;7.97;3.95;;;16.00;63.60;;;;;;6095622;23;20448;-73
2021/06/16 03:07:40;;;;;;;8.90;4.55;;;15.90;63.70;;;;;;6071479;23;20026;-71
2021/06/16 03:10:08;;;;;;;7.82;4.03;;;15.90;64.00;;;;;;6095426;23;20278;-70
2021/06/16 03:12:36;;;;;;;13.05;4.03;;;15.90;64.00;;;;;;6071285;23;20466;-74
2021/06/16 03:15:05;;;;;;;8.57;4.25;;;15.90;64.20;;;;;;6095359;23;20029;-70
2021/06/16 03:17:33;;;;;;;13.45;4.50;;;15.90;64.20;;;;;;6096739;23;20089;-70
2021/06/16 03:20:02;;;;;;;10.38;4.22;;;15.90;64.40;;;;;;6071036;23;20058;-70
2021/06/16 03:22:30;;;;;;;10.48;4.40;;;15.90;64.50;;;;;;6047268;23;20034;-70
2021/06/16 03:24:58;;;;;;;7.75;3.90;;;15.90;64.60;;;;;;6095276;23;20070;-70
2021/06/16 03:27:25;;;;;;;11.80;5.20;;;15.90;64.50;;;;;;6095246;23;20006;-74
2021/06/16 03:29:54;;;;;;;12.20;3.67;;;15.90;64.40;;;;;;6071020;23;20073;-73
2021/06/16 03:32:22;;;;;;;7.22;3.72;;;15.90;64.20;;;;;;6047263;23;20011;-70
2021/06/16 03:34:49;;;;;;;8.85;4.10;;;15.80;64.10;;;;;;6094974;23;20022;-73
2021/06/16 03:37:17;;;;;;;11.95;4.22;;;15.80;64.00;;;;;;6071299;23;20014;-70
2021/06/16 03:39:49;;;;;;;8.80;3.33;;;15.80;64.00;;;;;;6095013;23;20448;-70
2021/06/16 03:42:16;;;;;;;8.00;3.20;;;15.80;64.20;;;;;;6071409;23;20038;-70
2021/06/16 03:44:43;;;;;;;8.48;3.25;;;15.80;64.10;;;;;;6047118;23;20070;-73
2021/06/16 03:47:12;;;;;;;8.23;3.88;;;15.90;64.20;;;;;;6095168;23;20093;-70
2021/06/16 03:49:42;;;;;;;8.60;3.67;;;15.90;64.20;;;;;;6095011;23;20079;-73
2021/06/16 03:52:10;;;;;;;11.93;4.70;;;15.90;64.20;;;;;;6047317;23;20097;-71
2021/06/16 03:54:37;;;;;;;8.43;4.10;;;16.00;64.30;;;;;;6094887;23;20451;-70
2021/06/16 03:57:04;;;;;;;9.85;3.75;;;16.00;63.80;;;;;;6071210;23;20082;-73
2021/06/16 03:59:31;;;;;;;6.70;3.70;;;16.10;64.40;;;;;;6094785;23;20022;-70
2021/06/16 04:01:57;;;;;;;8.77;3.63;;;16.10;64.30;;;;;;6095073;23;20007;-73
2021/06/16 04:04:24;;;;;;;8.27;3.60;;;16.00;64.80;;;;;;6071057;23;20022;-70
2021/06/16 04:06:50;;;;;;;8.13;3.88;;;16.10;64.80;;;;;;6071098;23;20353;-73
2021/06/16 04:09:17;;;;;;;8.93;3.83;;;16.20;64.00;;;;;;6094810;23;20046;-74
2021/06/16 04:11:44;;;;;;;10.32;4.15;;;16.20;64.50;;;;;;6071000;23;20006;-73
2021/06/16 04:14:10;;;;;;;10.27;4.57;;;16.30;64.70;;;;;;6070985;23;20037;-70
2021/06/16 04:16:41;;;;;;;8.10;4.40;;;16.40;64.10;;;;;;6094988;23;20010;-70
2021/06/16 04:19:08;;;;;;;10.50;4.60;;;16.40;64.60;;;;;;6095033;23;20010;-73
2021/06/16 04:21:34;;;;;;;9.77;4.40;;;16.50;63.80;;;;;;6095047;23;20058;-70
2021/06/16 04:24:00;;;;;;;;;;;16.60;64.20;;;;;;6095493;23;20056;-74
2021/06/16 04:26:27;;;;;;;9.80;4.70;;;16.70;63.00;;;;;;6096448;23;19909;-74
2021/06/16 04:28:53;;;;;;;;;;;16.80;63.80;;;;;;6096936;23;20073;-74
2021/06/16 04:31:19;;;;;;;8.52;4.32;;;16.90;63.30;;;;;;6096114;23;19916;-73
2021/06/16 04:33:45;;;;;;;14.68;5.38;;;16.90;63.20;;;;;;6070939;23;20022;-73
2021/06/16 04:36:12;;;;;;;9.32;5.15;;;17.10;63.40;;;;;;6096860;23;20488;-71
2021/06/16 04:38:38;;;;;;;10.65;5.85;;;17.10;63.50;;;;;;6096387;23;20014;-71
2021/06/16 04:41:05;;;;;;;;;;;17.20;64.00;;;;;;6071500;23;20021;-71
2021/06/16 04:43:32;;;;;;;12.63;5.72;;;17.30;63.20;;;;;;6094951;23;19913;-71
2021/06/16 04:45:58;;;;;;;13.10;6.70;;;17.30;63.50;;;;;;6072581;23;20070;-70
2021/06/16 04:48:24;;;;;;;;;;;17.40;63.70;;;;;;6073431;23;20425;-73
2021/06/16 04:50:50;;;;;;;14.98;5.65;;;17.50;62.60;;;;;;6072888;23;19913;-70
2021/06/16 04:53:17;;;;;;;;;;;17.50;63.70;;;;;;6073357;23;20021;-73
2021/06/16 04:55:43;;;;;;;11.93;5.57;;;17.60;62.60;;;;;;6096584;23;19917;-70
2021/06/16 04:58:09;;;;;;;15.15;5.70;;;17.60;63.80;;;;;;6072661;23;20010;-71
2021/06/16 05:00:35;;;;;;;;;;;17.70;64.20;;;;;;6073137;23;20025;-74
2021/06/16 05:03:02;;;;;;;11.35;5.75;;;17.70;62.90;;;;;;6048644;23;20255;-73
2021/06/16 05:05:29;;;;;;;16.45;6.18;;;17.80;63.90;;;;;;6072677;23;20014;-70
2021/06/16 05:07:55;;;;;;;9.88;6.40;;;17.90;64.10;;;;;;6096590;23;20093;-73
2021/06/16 05:10:22;;;;;;;12.90;6.50;;;18.00;63.70;;;;;;6072551;23;20015;-73
2021/06/16 05:12:48;;;;;;;10.73;5.90;;;18.10;64.10;;;;;;6048555;23;20018;-70
2021/06/16 05:15:15;;;;;;;;;;;18.20;63.90;;;;;;6073152;23;20017;-73
2021/06/16 05:17:42;;;;;;;11.40;5.30;;;18.30;63.10;;;;;;6097858;23;19913;-71
2021/06/16 05:20:12;;;;;;;12.90;5.72;;;18.40;62.90;;;;;;6098088;23;20077;-71
2021/06/16 05:22:39;;;;;;;14.20;5.78;;;18.50;62.80;;;;;;6097858;23;20389;-73
2021/06/16 05:25:09;;;;;;;8.80;5.47;;;18.60;62.80;;;;;;6096412;23;20041;-71
2021/06/16 05:27:36;;;;;;;12.88;6.07;;;18.60;63.00;;;;;;6072453;23;20093;-71
2021/06/16 05:30:05;;;;;;;12.07;5.93;;;18.70;62.50;;;;;;6072074;23;20054;-73
2021/06/16 05:32:31;;;;;;;13.73;6.15;;;18.80;62.90;;;;;;6097208;23;20459;-74
2021/06/16 05:34:58;;;;;;;12.18;5.75;;;18.80;62.90;;;;;;6096315;23;20018;-73
2021/06/16 05:37:24;;;;;;;11.85;5.80;;;18.90;62.80;;;;;;6072340;23;20020;-70
2021/06/16 05:39:50;;;;;;;12.55;6.20;;;19.00;62.40;;;;;;6097639;23;20136;-73
2021/06/16 05:42:17;;;;;;;10.95;5.97;;;19.10;62.30;;;;;;6072399;23;20013;-71
2021/06/16 05:44:43;;;;;;;10.07;6.03;;;19.10;61.60;;;;;;6072201;23;20022;-71
2021/06/16 05:47:10;;;;;;;12.15;5.63;;;19.20;62.10;;;;;;6097651;23;20463;-71
2021/06/16 05:49:36;;;;;;;9.95;5.68;;;19.30;62.00;;;;;;6072445;23;20381;-73
2021/06/16 05:52:03;;;;;;;12.63;6.35;;;19.30;61.80;;;;;;6097675;23;20411;-71
2021/06/16 05:54:29;;;;;;;12.23;6.13;;;19.40;61.70;;;;;;6095993;23;20023;-70
2021/06/16 05:56:58;;;;;;;11.02;5.10;;;19.40;61.60;;;;;;6097083;23;20014;-71
2021/06/16 05:59:24;;;;;;;12.40;5.57;;;19.50;61.20;;;;;;6072329;23;20098;-73
2021/06/16 06:01:50;;;;;;;12.88;5.75;;;19.60;60.80;;;;;;6071917;23;20011;-71
2021/06/16 06:04:17;;;;;;;11.02;5.80;;;19.70;60.70;;;;;;6071972;23;20360;-73
2021/06/16 06:06:43;;;;;;;11.82;5.45;;;19.80;60.50;;;;;;6072061;23;20018;-74
2021/06/16 06:09:10;;;;;;;12.18;5.38;;;19.80;60.30;;;;;;6072030;23;20058;-70
2021/06/16 06:11:37;;;;;;;14.63;5.95;;;19.90;59.70;;;;;;6097400;23;20499;-73
2021/06/16 06:14:05;;;;;;;8.88;4.80;;;20.00;59.60;;;;;;6095733;23;20014;-73
2021/06/16 06:16:32;;;;;;;9.45;4.57;;;20.10;59.70;;;;;;6095906;23;20322;-73
2021/06/16 06:18:59;;;;;;;14.00;6.00;;;20.20;59.20;;;;;;6071604;23;20015;-73
2021/06/16 06:24:10;;;;;;;10.10;5.05;;;20.50;58.20;;;;;;6075732;23;20025;-73
2021/06/16 06:26:37;;;;;;;13.93;5.88;;;20.70;58.20;;;;;;6071741;23;20013;-70
2021/06/16 06:29:04;;;;;;;14.23;5.90;;;20.90;57.10;;;;;;6097137;23;20014;-71
2021/06/16 06:31:31;;;;;;;10.00;4.63;;;21.00;57.20;;;;;;6097005;23;20480;-73
2021/06/16 06:33:57;;;;;;;9.43;4.97;;;21.10;56.20;;;;;;6095676;23;20010;-74
2021/06/16 06:36:24;;;;;;;11.18;4.78;;;21.10;55.40;;;;;;6095728;23;20045;-71
2021/06/16 06:38:51;;;;;;;21.02;5.68;;;21.30;55.60;;;;;;6071614;23;20345;-71
2021/06/16 06:41:17;;;;;;;21.67;5.35;;;21.40;56.00;;;;;;6071594;23;20018;-72
2021/06/16 06:43:44;;;;;;;13.32;5.05;;;21.40;56.00;;;;;;6071440;23;20474;-73
2021/06/16 06:46:12;;;;;;;8.60;4.57;;;21.50;55.80;;;;;;6071755;23;20038;-71
2021/06/16 06:48:38;;;;;;;22.23;5.38;;;21.50;55.80;;;;;;6097518;23;20336;-73
2021/06/16 06:51:05;;;;;;;13.95;5.10;;;21.60;55.70;;;;;;6095759;23;20042;-71
2021/06/16 06:53:31;;;;;;;10.48;4.10;;;21.70;55.20;;;;;;6095519;23;20014;-71
2021/06/16 06:55:58;;;;;;;11.48;5.18;;;21.90;54.80;;;;;;6095529;23;20050;-73
2021/06/16 06:58:25;;;;;;;9.63;4.60;;;21.90;55.20;;;;;;6071404;23;20007;-74
2021/06/16 07:00:52;;;;;;;7.97;4.47;;;22.20;54.30;;;;;;6095608;23;20044;-71
2021/06/16 07:03:19;;;;;;;12.35;4.70;;;22.30;54.00;;;;;;6096933;23;20010;-71
2021/06/16 07:05:45;;;;;;;9.32;4.57;;;22.50;54.20;;;;;;6097182;23;20050;-71
2021/06/16 07:08:11;;;;;;;8.40;4.63;;;22.60;53.90;;;;;;6096903;23;20074;-72
2021/06/16 07:10:38;;;;;;;8.98;4.57;;;22.70;53.90;;;;;;6097153;23;20018;-71
2021/06/16 07:13:04;;;;;;;13.80;4.95;;;22.70;53.40;;;;;;6095410;23;20007;-70
2021/06/16 07:15:31;;;;;;;9.18;4.20;;;22.80;52.90;;;;;;6096554;23;20023;-71
2021/06/16 07:17:58;;;;;;;9.45;4.38;;;23.00;52.70;;;;;;6095319;23;20440;-73
2021/06/16 07:20:25;;;;;;;9.13;4.75;;;23.10;52.80;;;;;;6071305;23;20022;-70
2021/06/16 07:22:51;;;;;;;8.25;3.97;;;23.30;52.80;;;;;;6071444;23;20006;-73
2021/06/16 07:25:19;;;;;;;11.98;4.53;;;23.40;52.40;;;;;;6047396;23;20022;-72
2021/06/16 07:27:45;;;;;;;8.40;4.10;;;23.40;51.70;;;;;;6071569;23;20010;-73
2021/06/16 07:30:14;;;;;;;8.52;4.50;;;23.50;52.00;;;;;;6046967;23;20033;-73
2021/06/16 07:32:42;;;;;;;9.88;5.30;;;23.60;51.60;;;;;;6095189;23;20010;-73
2021/06/16 07:35:10;;;;;;;10.02;4.82;;;23.80;51.50;;;;;;6071357;23;20019;-71
2021/06/16 07:37:37;;;;;;;8.13;4.15;;;23.80;51.30;;;;;;6071020;23;20014;-74
2021/06/16 07:40:10;;;;;;;9.52;4.10;;;24.00;51.00;;;;;;6071094;23;20384;-73
2021/06/16 07:42:38;;;;;;;12.05;4.35;;;24.10;50.20;;;;;;6047756;23;20116;-71
2021/06/16 07:45:07;;;;;;;8.15;4.03;;;24.40;50.00;;;;;;6095273;23;20496;-73
2021/06/16 07:47:33;;;;;;;9.80;4.10;;;24.50;49.40;;;;;;6047102;23;20519;-73
2021/06/16 07:50:00;;;;;;;10.75;4.38;;;24.50;48.50;;;;;;6071163;23;20018;-70
2021/06/16 07:52:27;;;;;;;10.73;4.25;;;24.60;48.60;;;;;;6047027;23;20015;-71
2021/06/16 07:54:54;;;;;;;7.72;3.85;;;24.70;47.60;;;;;;6095138;23;20460;-71
2021/06/16 07:57:23;;;;;;;7.20;4.07;;;25.00;47.60;;;;;;6047065;23;20341;-70
2021/06/16 07:59:49;;;;;;;9.88;4.45;;;25.30;47.40;;;;;;6096538;23;20375;-71
2021/06/16 08:02:16;;;;;;;7.85;4.20;;;25.40;47.10;;;;;;6096584;23;20038;-71
2021/06/16 08:04:43;;;;;;;9.23;4.00;;;25.40;46.10;;;;;;6096360;23;20030;-71
2021/06/16 08:07:12;;;;;;;7.20;4.00;;;25.40;46.80;;;;;;6096503;23;20014;-70
2021/06/16 08:09:42;;;;;;;11.73;5.57;;;25.40;46.00;;;;;;6096516;23;20046;-71
2021/06/16 08:12:10;;;;;;;12.15;5.32;;;25.50;45.80;;;;;;6047496;23;20058;-73
2021/06/16 08:14:37;;;;;;;20.20;13.20;;;25.60;46.00;;;;;;6095086;23;20040;-73
2021/06/16 08:17:05;;;;;;;9.68;4.00;;;25.80;45.90;;;;;;6096561;23;20070;-70
2021/06/16 08:19:51;;;;;;;6.75;3.78;;;25.90;45.30;;;;;;6096738;23;20360;-71
2021/06/16 08:22:18;;;;;;;8.02;3.90;;;26.10;45.10;;;;;;6073145;23;20310;-71
2021/06/16 08:24:45;;;;;;;9.02;4.43;;;26.40;44.40;;;;;;6073065;23;20414;-71
2021/06/16 08:27:11;;;;;;;7.90;3.95;;;26.50;43.40;;;;;;6073019;23;20318;-73
2021/06/16 08:29:39;;;;;;;7.32;4.10;;;26.60;44.00;;;;;;6098104;23;20023;-73
2021/06/16 08:32:06;;;;;;;8.13;4.35;;;26.60;44.10;;;;;;6097018;23;20015;-71
2021/06/16 08:34:32;;;;;;;8.18;4.18;;;26.50;44.40;;;;;;6097021;23;20301;-72
2021/06/16 08:36:59;;;;;;;8.85;4.50;;;26.50;44.20;;;;;;6072945;23;20010;-74
2021/06/16 08:39:25;;;;;;;11.48;4.13;;;26.50;44.40;;;;;;6098179;23;20023;-75
2021/06/16 08:41:52;;;;;;;12.82;4.90;;;26.50;44.50;;;;;;6072710;23;20085;-71
2021/06/16 08:44:19;;;;;;;13.32;4.72;;;26.50;44.10;;;;;;6098274;23;20452;-74
2021/06/16 08:46:46;;;;;;;12.35;4.50;;;26.50;43.80;;;;;;6072690;23;20078;-71
2021/06/16 08:49:12;;;;;;;16.10;5.20;;;26.60;43.30;;;;;;6048779;23;20030;-74
2021/06/16 08:51:39;;;;;;;8.73;4.03;;;26.60;42.60;;;;;;6072651;23;20325;-72
2021/06/16 08:54:05;;;;;;;9.38;4.20;;;26.70;42.80;;;;;;6098010;23;20006;-71
2021/06/16 08:56:33;;;;;;;14.23;4.70;;;26.80;41.70;;;;;;6096572;23;20097;-71
2021/06/16 08:58:59;;;;;;;16.55;4.82;;;27.00;42.50;;;;;;6097897;23;20014;-74
2021/06/16 09:01:26;;;;;;;23.08;4.35;;;27.00;41.80;;;;;;6072736;23;20082;-72
2021/06/16 09:03:52;;;;;;;24.35;6.00;;;27.30;41.80;;;;;;6072485;23;20085;-72
2021/06/16 09:06:18;;;;;;;30.55;4.90;;;27.40;41.00;;;;;;6072382;23;20420;-71
2021/06/16 09:09:07;;;;;;;9.25;4.13;;;27.60;40.40;;;;;;6072397;23;20034;-71
2021/06/16 09:11:51;;;;;;;8.43;3.58;;;27.80;40.90;;;;;;6096617;23;20487;-74
2021/06/16 09:14:49;;;;;;;6.43;3.55;;;27.80;40.90;;;;;;6072601;23;20356;-74
2021/06/16 09:17:37;;;;;;;10.82;4.30;;;27.70;41.40;;;;;;6072635;23;20038;-74
2021/06/16 09:20:04;;;;;;;9.75;4.93;;;27.70;41.20;;;;;;6072463;23;20053;-71
2021/06/16 09:22:34;;;;;;;5.65;3.33;;;27.70;41.30;;;;;;6072411;23;20336;-71
2021/06/16 09:25:06;;;;;;;13.02;4.00;;;27.60;40.80;;;;;;6072338;23;20061;-74
2021/06/16 09:27:51;;;;;;;25.17;7.00;;;27.60;41.40;;;;;;6072755;23;20007;-74
2021/06/16 09:30:41;;;;;;;29.85;7.38;;;27.70;40.40;;;;;;6097421;23;20050;-73
2021/06/16 09:33:26;;;;;;;8.60;4.38;;;28.00;40.70;;;;;;6097828;23;20007;-74
2021/06/16 09:35:53;;;;;;;21.75;4.40;;;28.30;39.90;;;;;;6096485;23;20089;-73
2021/06/16 09:38:37;;;;;;;9.80;3.75;;;28.70;39.30;;;;;;6097741;23;20030;-74
2021/06/16 09:43:56;;;;;;;7.22;3.75;;;29.40;38.90;;;;;;6096211;23;20021;-71
2021/06/16 09:46:23;;;;;;;7.20;3.83;;;30.10;38.20;;;;;;6097642;23;20021;-71
2021/06/16 09:48:49;;;;;;;7.40;3.33;;;30.60;36.00;;;;;;6097666;23;20078;-74
2021/06/16 09:51:34;;;;;;;11.80;3.88;;;31.50;33.70;;;;;;6072283;23;20069;-71
2021/06/16 09:54:21;;;;;;;12.57;4.05;;;32.40;31.10;;;;;;6095940;23;20010;-72
2021/06/16 09:57:05;;;;;;;;;;;33.30;30.80;;;;;;6098120;23;20093;-74
2021/06/16 09:59:58;;;;;;;7.43;3.60;;;33.80;30.60;;;;;;6071811;23;19944;-71
2021/06/16 10:02:29;;;;;;;9.15;3.65;;;34.60;29.40;;;;;;6096169;23;20037;-71
2021/06/16 10:07:41;;;;;;;6.30;3.45;;;35.90;27.10;;;;;;6096349;23;20018;-71
2021/06/16 10:10:28;;;;;;;6.97;3.22;;;36.70;26.50;;;;;;6048062;23;20022;-73
2021/06/16 10:13:12;;;;;;;7.25;3.15;;;37.30;25.70;;;;;;6097489;23;20018;-75
2021/06/16 10:15:39;;;;;;;13.30;3.55;;;37.70;25.10;;;;;;6071966;23;20018;-72
2021/06/16 10:18:05;;;;;;;9.98;4.00;;;38.20;23.60;;;;;;6095790;23;20014;-76
2021/06/16 10:20:32;;;;;;;7.15;3.33;;;38.60;23.50;;;;;;6071997;23;20015;-72
2021/06/16 10:22:58;;;;;;;8.38;3.47;;;39.20;23.50;;;;;;6071759;23;20047;-76
2021/06/16 10:25:24;;;;;;;7.95;3.67;;;39.70;22.50;;;;;;6097464;23;20015;-75
2021/06/16 10:28:10;;;;;;;8.43;3.33;;;40.10;21.80;;;;;;6071875;23;20042;-76
2021/06/16 10:33:54;;;;;;;9.50;3.60;;;41.30;21.10;;;;;;6076464;23;20388;-75
2021/06/16 10:36:21;;;;;;;27.10;13.80;;;41.70;21.00;;;;;;6047801;23;20101;-72
2021/06/16 10:39:09;;;;;;;10.23;3.35;;;42.30;19.80;;;;;;6071417;23;20015;-76
2021/06/16 10:41:55;;;;;;;6.65;3.55;;;42.80;19.60;;;;;;6096990;23;20029;-76
2021/06/16 10:44:39;;;;;;;6.30;3.63;;;43.30;19.00;;;;;;6096973;23;20021;-76
2021/06/16 10:47:06;;;;;;;6.80;3.33;;;43.90;18.50;;;;;;6097051;23;20042;-73
2021/06/16 10:49:55;;;;;;;6.60;3.60;;;44.30;17.90;;;;;;6095447;23;20010;-75
2021/06/16 10:52:26;;;;;;;5.88;3.70;;;44.60;17.80;;;;;;6097093;23;20081;-76
2021/06/16 10:55:12;;;;;;;7.32;3.13;;;45.00;17.50;;;;;;6095692;23;20332;-76
2021/06/16 10:57:38;;;;;;;73.88;60.75;;;45.40;17.60;;;;;;6071433;23;20466;-72
2021/06/16 11:00:09;;;;;;;8.68;5.25;;;45.90;17.40;;;;;;6097037;23;20017;-72
2021/06/16 11:02:54;;;;;;;6.97;3.72;;;45.80;16.60;;;;;;6095515;23;20010;-73
2021/06/16 11:05:26;;;;;;;50.83;35.00;;;45.90;16.60;;;;;;6047495;23;20097;-73
2021/06/16 11:07:54;;;;;;;10.20;4.43;;;46.50;17.40;;;;;;6071372;23;20018;-76
2021/06/16 11:10:21;;;;;;;6.10;3.70;;;46.70;16.90;;;;;;6095488;23;20015;-77
2021/06/16 11:12:52;;;;;;;7.93;4.93;;;46.50;16.40;;;;;;6095374;23;20018;-76
2021/06/16 11:15:38;;;;;;;7.00;4.03;;;46.10;17.00;;;;;;6047500;23;20014;-73
2021/06/16 11:18:06;;;;;;;;;;;45.80;17.10;;;;;;6072233;23;20010;-74
2021/06/16 11:20:57;;;;;;;17.00;8.52;;;45.70;17.30;;;;;;6071016;23;19981;-73
2021/06/16 11:23:24;;;;;;;8.60;3.67;;;46.10;17.40;;;;;;6095289;23;20014;-73
2021/06/16 11:25:51;;;;;;;40.72;22.90;;;45.20;16.90;;;;;;6095440;23;20504;-73
2021/06/16 11:28:40;;;;;;;7.95;4.22;;;45.20;17.60;;;;;;6047468;23;20014;-76
2021/06/16 11:31:10;;;;;;;14.70;6.60;;;45.40;16.90;;;;;;6047248;23;20030;-76
2021/06/16 11:33:44;;;;;;;12.40;4.97;;;45.60;16.60;;;;;;6071686;23;20014;-76
2021/06/16 11:36:48;;;;;;;6.93;3.78;;;45.50;16.80;;;;;;6071522;23;20021;-76
2021/06/16 11:39:21;;;;;;;6.63;3.63;;;46.50;16.90;;;;;;6096581;23;20018;-75
2021/06/16 11:41:47;;;;;;;7.47;4.20;;;47.40;15.90;;;;;;6071240;23;20013;-73
2021/06/16 11:44:15;;;;;;;7.10;3.40;;;48.10;15.80;;;;;;6096605;23;20373;-73
2021/06/16 11:47:01;;;;;;;5.55;3.47;;;48.90;14.60;;;;;;6096574;23;20018;-76
2021/06/16 11:49:46;;;;;;;8.40;4.22;;;49.50;15.00;;;;;;6096531;23;20018;-76
2021/06/16 11:52:19;;;;;;;9.88;4.57;;;50.00;14.30;;;;;;6071089;23;20093;-74
2021/06/16 11:54:47;;;;;;;8.57;4.40;;;50.30;13.70;;;;;;6094666;23;20056;-76
2021/06/16 11:57:15;;;;;;;8.93;4.50;;;50.50;13.50;;;;;;6096601;23;20010;-73
2021/06/16 12:00:01;;;;;;;5.82;4.07;;;50.80;13.50;;;;;;6070791;23;20033;-73
2021/06/16 12:02:29;;;;;;;9.52;4.13;;;50.20;13.30;;;;;;6095033;23;20391;-73
2021/06/16 12:05:16;;;;;;;18.75;5.25;;;50.10;12.90;;;;;;6095164;23;20023;-77
2021/06/16 12:08:01;;;;;;;5.57;3.70;;;50.00;13.80;;;;;;6096516;23;20010;-77
2021/06/16 12:10:28;;;;;;;8.75;4.15;;;50.40;13.50;;;;;;6070817;23;20467;-77
2021/06/16 12:12:58;;;;;;;8.02;4.22;;;50.90;12.60;;;;;;6095281;23;20013;-76
2021/06/16 12:15:43;;;;;;;12.00;4.22;;;50.70;12.20;;;;;;6095202;23;20027;-73
2021/06/16 12:18:32;;;;;;;6.68;4.05;;;50.80;12.50;;;;;;6070858;23;20389;-73
2021/06/16 12:20:59;;;;;;;6.07;3.78;;;50.90;12.50;;;;;;6070769;23;20023;-74
2021/06/16 12:23:45;;;;;;;27.55;5.18;;;51.30;11.90;;;;;;6095022;23;20007;-73
2021/06/16 12:26:30;;;;;;;8.23;4.45;;;51.50;12.90;;;;;;6094768;23;20025;-76
2021/06/16 12:28:57;;;;;;;11.93;3.90;;;51.50;12.50;;;;;;6070977;23;20041;-76
2021/06/16 12:37:16;;;;;;;9.43;4.32;;;51.30;12.30;;;;;;6095404;23;20094;-73
2021/06/16 12:39:59;;;;;;;6.63;4.40;;;51.40;12.30;;;;;;6070818;23;20026;-73
2021/06/16 12:43:01;;;;;;;9.05;4.25;;;51.20;12.70;;;;;;6047429;23;20428;-77
2021/06/16 12:45:30;;;;;;;9.57;3.90;;;51.10;12.50;;;;;;6096291;23;20345;-76
2021/06/16 12:48:23;;;;;;;14.82;4.30;;;50.80;12.20;;;;;;6096489;23;20021;-73
2021/06/16 12:51:08;;;;;;;23.17;5.25;;;50.70;12.80;;;;;;6071232;23;20018;-76
2021/06/16 12:53:53;;;;;;;11.73;3.90;;;50.50;13.10;;;;;;6070771;23;20019;-72
2021/06/16 12:56:19;;;;;;;5.53;3.70;;;49.90;13.30;;;;;;6096371;23;20018;-74
2021/06/16 12:58:48;;;;;;;9.15;4.32;;;48.30;13.90;;;;;;6070855;23;20101;-73
2021/06/16 13:01:32;;;;;;;7.53;3.80;;;45.80;14.90;;;;;;6071084;23;20022;-73
2021/06/16 13:03:59;;;;;;;9.13;3.95;;;44.20;16.90;;;;;;6094615;23;20010;-75
2021/06/16 13:06:26;;;;;;;8.77;3.90;;;43.30;18.00;;;;;;6072079;23;20325;-74
2021/06/16 13:09:01;;;;;;;7.10;3.75;;;42.70;18.40;;;;;;6072469;23;20037;-73
2021/06/16 13:11:45;;;;;;;5.43;3.50;;;42.10;18.90;;;;;;6098089;23;20006;-76
2021/06/16 13:14:41;;;;;;;10.85;3.97;;;41.50;18.50;;;;;;6072664;23;20098;-76
2021/06/16 13:17:09;;;;;;;9.27;4.32;;;40.80;19.30;;;;;;6074837;23;20094;-72
2021/06/16 13:20:13;;;;;;;6.95;3.40;;;40.10;19.80;;;;;;6097670;23;20097;-72
2021/06/16 13:22:46;;;;;;;7.93;4.38;;;39.30;20.00;;;;;;6072479;23;20014;-76
2021/06/16 13:25:43;;;;;;;8.77;3.90;;;38.90;20.50;;;;;;6098240;23;20025;-76